Tonopah, Nevada Weather observations

Data are for observation ending at time listed.
 Day   Time    Ave.   Ave.  Ave.  Vector   Max.   Stn.    Total    Solar   Ave.  
  of    of     Air    Rel.  Wind   Wind    Wind   Baro.  Precip.   Rad.    Soil  
Year   Day     Temp.  Hum.  Speed  Dir.    Gust   Pres.                    Temp. 
2015   (PST)    F      %     mph   deg.    mph     mb.     in.     W/m2     F   
------------------------------------------------------------------------------
  90   21:00   50.2    11   15.0   289     23.0   810.3    0.00       0    64.8
  90   21:10   50.3    11   15.5   288     26.7   810.3    0.00       0    64.6
  90   21:20   49.8    11   13.2   288     21.6   810.5    0.00       0    64.5
  90   21:30   49.5    11   13.4   298     21.3   810.7    0.00       0    64.3
  90   21:40   48.9    12   14.5   295     24.9   810.9    0.00       0    64.1
  90   21:50   48.2    13   13.3   292     24.8   810.9    0.00       0    63.9
  90   22:00   47.4    14   12.3   290     21.5   811.0    0.00       0    63.7
  90   22:10   46.9    18   12.1   290     20.6   811.0    0.00       0    63.5
  90   22:20   46.7    22   14.7   289     23.2   811.1    0.00       0    63.3
  90   22:30   46.0    26   12.1   286     21.3   811.2    0.00       0    63.2
  90   22:40   45.7    27   11.4   288     19.4   811.3    0.00       0    63.0
  90   22:50   45.5    29   10.7   288     18.1   811.4    0.00       0    62.8
  90   23:00   44.8    31   10.9   286     21.0   811.5    0.00       0    62.6
  90   23:10   44.1    33    8.6   284     15.3   811.7    0.00       0    62.4
  90   23:20   43.4    35    6.3   280     11.0   812.0    0.00       0    62.3
  90   23:30   43.1    35    7.6   287     15.1   812.2    0.00       0    62.1
  90   23:40   43.2    36   11.3   292     18.1   812.2    0.00       0    62.0
  90   23:50   42.9    36   11.1   287     16.6   812.2    0.00       0    61.8
  91    0:00   42.8    37   13.3   290     23.2   812.1    0.00       0    61.6
  91    0:10   42.6    38   12.2   294     21.0   812.2    0.00       0    61.4
  91    0:20   42.3    39   11.9   295     18.9   812.3    0.00       0    61.2
  91    0:30   42.0    40   11.0   296     17.5   812.5    0.00       0    61.1
  91    0:40   41.7    41   10.7   292     16.2   812.6    0.00       0    60.9
  91    0:50   40.9    43   10.6   289     16.5   812.5    0.00       0    60.7
  91    1:00   40.2    45   10.1   289     16.6   812.6    0.00       0    60.6
  91    1:10   39.7    47   11.0   291     16.7   812.6    0.00       0    60.4
  91    1:20   39.3    47   10.0   300     16.1   812.6    0.00       0    60.3
  91    1:30   39.1    48   11.5   302     18.3   812.7    0.00       0    60.1
  91    1:40   38.8    48   12.6   301     18.3   812.6    0.00       0    60.0
  91    1:50   38.6    48   14.7   307     25.2   812.5    0.00       0    59.8
  91    2:00   38.5    48   13.4   300     25.0   812.4    0.00       0    59.6
  91    2:10   38.0    49   11.7   300     19.3   812.4    0.00       0    59.5
  91    2:20   37.4    50    8.1   305     15.1   812.5    0.00       0    59.3
  91    2:30   36.8    51    7.3   308     12.0   812.6    0.00       0    59.2
  91    2:40   36.1    52    5.4   295      8.5   812.5    0.00       0    59.0
  91    2:50   35.6    52    6.3   280     11.6   812.5    0.00       0    58.8
  91    3:00   35.3    53    6.0   295     10.7   812.5    0.00       0    58.6
  91    3:10   35.3    53    6.5   320     11.4   812.5    0.00       0    58.5
  91    3:20   35.1    53    5.7   315      9.7   812.5    0.00       0    58.3
  91    3:30   34.7    54    5.9   309     10.7   812.4    0.00       0    58.1
  91    3:40   34.4    54    6.8   316     10.2   812.3    0.00       0    58.0
  91    3:50   34.0    54    5.0   315      9.0   812.4    0.00       0    57.8
  91    4:00   34.0    54    5.1   309      9.1   812.4    0.00       0    57.7
  91    4:10   33.9    54    5.3   321     11.0   812.4    0.00       0    57.5
  91    4:20   33.7    54    5.2   299      8.8   812.4    0.00       0    57.3
  91    4:30   33.5    54    6.7   290     10.2   812.2    0.00       0    57.2
  91    4:40   33.3    55    7.4   288     12.0   812.2    0.00       0    57.0
  91    4:50   33.1    55    7.2   290     10.7   812.3    0.00       0    56.9
  91    5:00   32.8    55    6.8   304     10.8   812.4    0.00       0    56.7
  91    5:10   32.2    56    7.8   298     13.2   812.4    0.00       0    56.6
  91    5:20   32.1    57    8.7   293     14.8   812.4    0.00       0    56.4
  91    5:30   32.0    56    7.4   298     12.0   812.5    0.00       1    56.2
  91    5:40   31.7    56    6.7   298     11.2   812.5    0.00       4    56.1
  91    5:50   31.4    57    4.4   294      8.3   812.6    0.00       7    56.0
  91    6:00   31.0    58    4.8   276      7.7   812.7    0.00      14    55.8
  91    6:10   31.2    57    5.3   279      7.8   812.8    0.00      48    55.7
  91    6:20   32.4    55    6.3   285      9.3   812.9    0.00      95    55.5
  91    6:30   33.0    53    6.3   283      9.3   813.0    0.00     137    55.4
  91    6:40   33.6    52    7.8   294     10.7   813.1    0.00     174    55.3
  91    6:50   34.0    51    7.5   289     12.6   813.2    0.00     212    55.1
  91    7:00   34.8    50    7.4   299     11.5   813.1    0.00     253    55.0
  91    7:10   35.2    49    8.9   304     12.9   813.0    0.00     295    54.9
  91    7:20   35.7    48    8.1   306     12.9   813.0    0.00     337    54.9
  91    7:30   36.1    47    9.8   304     14.1   813.1    0.00     378    54.8
  91    7:40   36.8    46    8.2   300     12.6   813.0    0.00     417    54.8
  91    7:50   37.8    44    6.8   300     10.0   813.0    0.00     457    54.7
  91    8:00   38.4    43    6.8   300     11.2   812.9    0.00     496    54.7
  91    8:10   38.4    43    6.9   300     10.3   812.8    0.00     536    54.7
  91    8:20   38.8    42    8.2   286     12.3   812.9    0.00     571    54.8
  91    8:30   39.7    40    7.5   301     12.2   813.0    0.00     611    54.8
  91    8:40   40.6    38    7.4   290     11.5   812.9    0.00     645    55.0
  91    8:50   41.2    37    6.9   295     12.8   812.8    0.00     680    55.0
  91    9:00   41.9    36    8.1   301     13.8   812.8    0.00     716    55.2
  91    9:10   42.4    34    7.3   296     14.3   812.9    0.00     732    55.3
  91    9:20   42.8    33    8.2   290     15.9   812.9    0.00     762    55.5
  91    9:30   43.9    32    6.3   295     12.1   812.9    0.00     812    55.7
  91    9:40   44.2    31    7.4   292     14.1   812.7    0.00     835    55.9
  91    9:50   44.8    29    7.1   286     12.6   812.6    0.00     863    56.0
  91   10:00   45.9    28    7.1   308     13.7   812.6    0.00     881    56.2
  91   10:10   46.3    27    6.2   289     11.2   812.5    0.00     899    56.5
  91   10:20   46.0    26    7.3   324     15.3   812.3    0.00     919    56.7
  91   10:30   46.7    25    6.7   289     11.8   812.3    0.00     941    57.0
  91   10:40   48.0    23    6.2   297     10.2   812.2    0.00     943    57.2
  91   10:50   47.8    22    8.1   290     15.5   812.1    0.00     965    57.6
  91   11:00   48.0    22    6.4   291     12.5   811.9    0.00     977    57.8
  91   11:10   48.0    22    7.9   287     14.4   811.9    0.00     987    58.1
  91   11:20   48.1    21    6.0   303     14.1   811.8    0.00     988    58.5
  91   11:30   48.7    21    5.7   280     11.6   811.7    0.00     984    58.9
  91   11:40   49.1    21    5.4   274     11.5   811.6    0.00     986    59.2
  91   11:50   49.9    20    5.1   280     10.6   811.5    0.00     978    59.6
  91   12:00   50.3    20    6.5   284     12.3   811.3    0.00     962    59.9
  91   12:10   49.9    20    5.6   280     11.0   811.2    0.00     951    60.3
  91   12:20   50.4    20    5.4   276      9.6   811.0    0.00     894    60.6
  91   12:30   51.1    18    4.8   308     11.2   810.8    0.00     995    61.1
  91   12:40   51.3    16    5.9   302      9.2   810.5    0.00    1002    61.4
  91   12:50   52.0    16    5.8   282     12.0   810.3    0.00     931    61.8
  91   13:00   51.9    16    4.2   236      8.0   810.2    0.00     900    62.2
  91   13:10   52.6    15    2.7   272      7.2   809.9    0.00     880    62.5
  91   13:20   53.5    14    3.6   208      8.2   809.7    0.00     882    62.8
  91   13:30   52.8    15    4.7   228      8.2   809.6    0.00     809    63.1
  91   13:40   53.9    15    5.7   266      9.9   809.6    0.00     813    63.4
  91   13:50   54.3    15    5.1   299     12.7   809.4    0.00     766    63.7
  91   14:00   54.3    15    4.7   279      9.5   809.3    0.00     681    64.1
  91   14:10   54.9    14    3.1   118      7.2   809.0    0.00     833    64.3
  91   14:20   55.0    14    4.5   129     16.1   808.9    0.00     775    64.6
  91   14:30   54.9    14    3.0   154      8.5   808.7    0.00     774    64.8
  91   14:40   55.7    14    4.6   178     12.9   808.5    0.00     704    65.0
  91   14:50   55.1    14    5.8   224     11.1   808.4    0.00     726    65.2
  91   15:00   55.9    14    2.6   192      6.9   808.3    0.00     648    65.4
  91   15:10   56.0    14    4.9   157     10.0   808.1    0.00     498    65.5
  91   15:20   55.8    14    3.3   193      7.2   808.0    0.00     401    65.7
  91   15:30   55.5    14    2.4   201      6.9   807.8    0.00     320    65.8
  91   15:40   55.9    14    2.4   199      7.5   807.7    0.00     340    65.9
  91   15:50   56.6    14    3.2   261      6.9   807.6    0.00     369    66.0
  91   16:00   56.4    14    2.3   185      6.3   807.5    0.00     327    66.0
  91   16:10   56.8    14    1.9   292      6.5   807.4    0.00     212    66.1
  91   16:20   55.4    15    4.6   320      9.8   807.2    0.00     177    66.0
  91   16:30   54.9    15    5.8   287      9.4   807.2    0.00     156    66.0
  91   16:40   54.6    15    7.3   294     13.3   807.1    0.00     127    66.0
  91   16:50   54.0    16    7.9   300     13.6   807.1    0.00     109    65.9
  91   17:00   53.5    16    9.4   307     15.3   807.1    0.00      91    65.8
  91   17:10   53.2    16    8.8   295     14.1   807.0    0.00      71    65.8
  91   17:20   52.8    16    9.7   301     16.5   807.0    0.00      52    65.6
  91   17:30   52.4    16   11.6   304     19.4   806.9    0.00      43    65.5
  91   17:40   51.5    17   11.1   310     20.5   806.9    0.00      33    65.3
  91   17:50   50.9    18   11.3   304     18.3   806.9    0.00      19    65.2
  91   18:00   50.3    18   12.6   300     20.3   806.8    0.00      11    65.0
  91   18:10   49.5    19   12.9   302     22.4   806.8    0.00       5    64.8
  91   18:20   49.0    20   11.7   303     20.9   806.7    0.00       3    64.6
  91   18:30   48.5    20   12.9   301     22.9   806.7    0.00       0    64.4
  91   18:40   47.8    20   14.4   300     22.7   806.8    0.00       0    64.2
  91   18:50   47.5    20   11.9   299     19.9   806.8    0.00       0    64.0
  91   19:00   46.9    20   15.2   298     23.4   806.9    0.00       0    63.8
  91   19:10   46.6    20   13.1   297     22.4   807.1    0.00       0    63.6
  91   19:20   46.1    20   15.3   298     24.7   807.1    0.00       0    63.4
  91   19:30   45.7    21   13.6   296     22.2   807.2    0.00       0    63.2
  91   19:40   45.3    22   14.8   294     26.1   807.3    0.00       0    63.0
  91   19:50   44.9    22   15.4   293     24.5   807.4    0.00       0    62.8
  91   20:00   44.6    23   15.6   294     23.5   807.5    0.00       0    62.6
  91   20:10   44.3    23   13.9   296     25.9   807.3    0.00       0    62.4
  91   20:20   43.9    23   14.0   289     21.2   807.3    0.00       0    62.2
  91   20:30   43.6    24   13.5   288     21.3   807.2    0.00       0    62.0
  91   20:40   43.3    24   13.7   292     21.0   807.3    0.00       0    61.8
  91   20:50   42.9    24   13.0   292     21.5   807.3    0.00       0    61.6

Return to Tonopah, Nevada graphs page.


Western Regional Climate Center,wrcc@dri.edu